Time;durP1;ratioP1;P1;durP2;ratioP2;P2;SDS_P1;SDS_P2;PMS_P1;PMS_P2;Temp;Humidity;BMP_temperature;BMP_pressure;BME280_temperature;BME280_humidity;BME280_pressure;Samples;Min_cycle;Max_cycle;Signal;HPM_P1;HPM_P2
2022/07/16 00:02:16;;;;;;;;;;;14.40;66.00;;;;;;4191972;28;19908;-86
2022/07/16 00:04:37;;;;;;;;;;;14.40;65.40;;;;;;4185194;28;20285;-84
2022/07/16 00:06:58;;;;;;;;;;;14.40;65.50;;;;;;4186546;28;19912;-85
2022/07/16 00:09:19;;;;;;;;;;;14.40;65.40;;;;;;4176117;28;19909;-85
2022/07/16 00:11:40;;;;;;;;;;;14.40;65.40;;;;;;4185059;28;20349;-85
2022/07/16 00:14:01;;;;;;;;;;;14.40;65.50;;;;;;4191321;28;19951;-85
2022/07/16 00:16:21;;;;;;;;;;;14.40;65.70;;;;;;4182371;28;19909;-85
2022/07/16 00:21:22;;;;;;;;;;;14.30;66.10;;;;;;4189666;28;19908;-84
2022/07/16 00:23:43;;;;;;;;;;;14.30;66.20;;;;;;4182321;28;19909;-84
2022/07/16 00:26:04;;;;;;;;;;;14.30;66.10;;;;;;4189469;28;20429;-85
2022/07/16 00:28:25;;;;;;;;;;;14.30;66.50;;;;;;4193866;28;20348;-84
2022/07/16 00:30:45;;;;;;;;;;;14.30;66.40;;;;;;4181416;28;19908;-85
2022/07/16 00:33:06;;;;;;;;;;;14.30;66.50;;;;;;4192340;28;19990;-84
2022/07/16 00:35:27;;;;;;;;;;;14.20;66.50;;;;;;4192533;28;20301;-85
2022/07/16 00:37:48;;;;;;;;;;;14.30;66.70;;;;;;4191226;28;20403;-83
2022/07/16 00:40:09;;;;;;;;;;;14.20;66.60;;;;;;4183585;28;20427;-83
2022/07/16 00:42:30;;;;;;;;;;;14.20;66.70;;;;;;4189887;28;19913;-84
2022/07/16 00:44:51;;;;;;;;;;;14.20;66.70;;;;;;4181982;28;19920;-84
2022/07/16 00:47:12;;;;;;;;;;;14.20;66.80;;;;;;4179760;28;19916;-85
2022/07/16 00:49:33;;;;;;;;;;;14.20;66.80;;;;;;4179014;28;20564;-86
2022/07/16 00:51:54;;;;;;;;;;;14.20;66.90;;;;;;4184334;28;19932;-85
2022/07/16 00:54:15;;;;;;;;;;;14.20;67.20;;;;;;4193443;28;20436;-86
2022/07/16 00:56:36;;;;;;;;;;;14.20;67.30;;;;;;4193888;28;19915;-86
2022/07/16 00:58:57;;;;;;;;;;;14.20;67.30;;;;;;4181707;28;19912;-86
2022/07/16 01:01:18;;;;;;;;;;;14.20;68.00;;;;;;4195641;28;19916;-85
2022/07/16 01:03:39;;;;;;;;;;;14.20;68.00;;;;;;4186362;28;19963;-85
2022/07/16 01:06:01;;;;;;;;;;;14.10;68.20;;;;;;4175542;28;19913;-85
2022/07/16 01:08:22;;;;;;;;;;;14.10;68.40;;;;;;4180958;28;19912;-85
2022/07/16 01:10:43;;;;;;;;;;;14.10;69.10;;;;;;4190659;28;20294;-84
2022/07/16 01:13:04;;;;;;;;;;;14.10;69.60;;;;;;4191855;28;20427;-86
2022/07/16 01:15:25;;;;;;;;;;;14.10;69.00;;;;;;4194911;28;19909;-86
2022/07/16 01:17:46;;;;;;;;;;;14.10;69.80;;;;;;4192486;28;19963;-85
2022/07/16 01:20:07;;;;;;;;;;;14.00;69.90;;;;;;4188150;28;19948;-85
2022/07/16 01:22:28;;;;;;;;;;;14.00;70.00;;;;;;4192269;28;19916;-84
2022/07/16 01:24:50;;;;;;;;;;;14.00;70.20;;;;;;4195828;28;20376;-85
2022/07/16 01:27:13;;;;;;;;;;;14.00;70.30;;;;;;4179299;28;19916;-85
2022/07/16 01:29:34;;;;;;;;;;;13.90;70.30;;;;;;4187631;28;20363;-85
2022/07/16 01:31:55;;;;;;;;;;;13.90;70.50;;;;;;4185889;28;19905;-85
2022/07/16 01:34:25;;;;;;;;;;;13.90;70.40;;;;;;4175140;28;19923;-85
2022/07/16 01:36:53;;;;;;;;;;;13.90;70.30;;;;;;4184886;28;19920;-85
2022/07/16 01:39:14;;;;;;;;;;;13.80;70.40;;;;;;4187024;28;19908;-84
2022/07/16 01:41:35;;;;;;;;;;;13.80;70.40;;;;;;4186350;28;19913;-85
2022/07/16 01:43:56;;;;;;;;;;;13.80;70.40;;;;;;4177210;28;19916;-85
2022/07/16 01:46:17;;;;;;;;;;;13.80;70.50;;;;;;4178445;28;19920;-85
2022/07/16 01:48:38;;;;;;;;;;;13.70;70.60;;;;;;4192680;28;20504;-86
2022/07/16 01:50:59;;;;;;;;;;;13.70;70.80;;;;;;4191038;28;20317;-85
2022/07/16 01:53:19;;;;;;;;;;;13.70;70.90;;;;;;4191527;28;19909;-84
2022/07/16 01:55:41;;;;;;;;;;;13.70;70.90;;;;;;4179583;28;19916;-86
2022/07/16 01:58:02;;;;;;;;;;;13.60;70.80;;;;;;4186006;28;19909;-85
2022/07/16 02:00:23;;;;;;;;;;;13.70;70.60;;;;;;4189191;28;19909;-86
2022/07/16 02:02:44;;;;;;;;;;;13.60;70.70;;;;;;4183142;28;19917;-85
2022/07/16 02:05:05;;;;;;;;;;;13.60;71.00;;;;;;4198997;28;19900;-85
2022/07/16 02:07:26;;;;;;;;;;;13.50;71.20;;;;;;4173514;28;20359;-85
2022/07/16 02:09:46;;;;;;;;;;;13.50;71.50;;;;;;4170195;28;19952;-85
2022/07/16 02:12:07;;;;;;;;;;;13.50;71.80;;;;;;4176986;28;19995;-86
2022/07/16 02:14:28;;;;;;;;;;;13.40;71.30;;;;;;4172949;28;19932;-85
2022/07/16 02:16:50;;;;;;;;;;;13.40;71.40;;;;;;4175795;28;19913;-85
2022/07/16 02:19:10;;;;;;;;;;;13.40;71.60;;;;;;4177960;28;19936;-84
2022/07/16 02:21:32;;;;;;;;;;;13.40;71.70;;;;;;4185368;28;19908;-85
2022/07/16 02:23:52;;;;;;;;;;;13.30;71.70;;;;;;4171251;28;19924;-85
2022/07/16 02:26:13;;;;;;;;;;;13.30;71.70;;;;;;4192794;28;20003;-84
2022/07/16 02:28:34;;;;;;;;;;;13.30;72.20;;;;;;4189156;28;19915;-85
2022/07/16 02:30:55;;;;;;;;;;;13.30;72.10;;;;;;4180056;28;19951;-85
2022/07/16 02:33:17;;;;;;;;;;;13.20;72.30;;;;;;4184217;28;19939;-85
2022/07/16 02:35:38;;;;;;;;;;;13.20;71.90;;;;;;4187086;28;20310;-85
2022/07/16 02:37:59;;;;;;;;;;;13.20;72.60;;;;;;4180157;28;19922;-85
2022/07/16 02:40:20;;;;;;;;;;;13.20;72.00;;;;;;4182869;28;20366;-85
2022/07/16 02:42:42;;;;;;;;;;;13.10;72.10;;;;;;4185059;28;20021;-85
2022/07/16 02:45:03;;;;;;;;;;;13.10;72.00;;;;;;4187897;28;19911;-84
2022/07/16 02:47:24;;;;;;;;;;;13.10;72.10;;;;;;4184633;28;20351;-84
2022/07/16 02:49:45;;;;;;;;;;;13.10;71.90;;;;;;4172144;28;19992;-85
2022/07/16 02:52:06;;;;;;;;;;;13.10;71.90;;;;;;4189336;28;19924;-86
2022/07/16 02:54:27;;;;;;;;;;;13.10;71.80;;;;;;4193044;28;19916;-86
2022/07/16 02:56:47;;;;;;;;;;;13.10;71.70;;;;;;4190046;28;19986;-85
2022/07/16 02:59:08;;;;;;;;;;;13.00;71.60;;;;;;4178151;28;20004;-85
2022/07/16 03:01:29;;;;;;;;;;;13.00;71.40;;;;;;4186961;28;19954;-85
2022/07/16 03:03:51;;;;;;;;;;;13.00;71.30;;;;;;4193799;28;20413;-87
2022/07/16 03:06:12;;;;;;;;;;;13.00;71.20;;;;;;4187672;28;19908;-85
2022/07/16 03:08:33;;;;;;;;;;;12.90;71.20;;;;;;4179216;28;19999;-85
2022/07/16 03:10:54;;;;;;;;;;;12.90;71.10;;;;;;4186423;28;19912;-86
2022/07/16 03:13:15;;;;;;;;;;;12.90;71.10;;;;;;4172496;28;20306;-86
2022/07/16 03:15:36;;;;;;;;;;;12.80;71.00;;;;;;4190368;28;19908;-84
2022/07/16 03:17:57;;;;;;;;;;;12.80;70.90;;;;;;4172939;28;20007;-85
2022/07/16 03:20:17;;;;;;;;;;;12.80;71.00;;;;;;4188509;28;20273;-85
2022/07/16 03:22:44;;;;;;;;;;;12.80;71.00;;;;;;4178115;28;19916;-85
2022/07/16 03:25:05;;;;;;;;;;;12.70;70.90;;;;;;4184300;28;20003;-85
2022/07/16 03:27:26;;;;;;;;;;;12.70;71.00;;;;;;4191811;28;19924;-87
2022/07/16 03:29:47;;;;;;;;;;;12.70;71.10;;;;;;4182872;28;20401;-86
2022/07/16 03:32:07;;;;;;;;;;;12.70;71.30;;;;;;4185541;28;19911;-85
2022/07/16 03:34:28;;;;;;;;;;;12.60;71.40;;;;;;4188532;28;19949;-86
2022/07/16 03:36:49;;;;;;;;;;;12.60;71.80;;;;;;4188881;28;19955;-85
2022/07/16 03:39:10;;;;;;;;;;;12.60;71.70;;;;;;4193475;28;19912;-84
2022/07/16 03:41:35;;;;;;;;;;;12.60;71.90;;;;;;4192424;28;19967;-86
2022/07/16 03:43:56;;;;;;;;;;;12.50;72.10;;;;;;4193881;28;19917;-86
2022/07/16 03:46:16;;;;;;;;;;;12.60;72.10;;;;;;4193764;28;19909;-84
2022/07/16 03:48:37;;;;;;;;;;;12.50;72.10;;;;;;4176186;28;19920;-85
2022/07/16 03:50:58;;;;;;;;;;;12.50;71.90;;;;;;4189400;28;19950;-85
2022/07/16 03:53:19;;;;;;;;;;;12.50;71.90;;;;;;4171285;28;20712;-84
2022/07/16 03:55:40;;;;;;;;;;;12.50;71.90;;;;;;4189231;28;20043;-85
2022/07/16 03:58:01;;;;;;;;;;;12.50;72.00;;;;;;4188153;28;19909;-85
2022/07/16 04:00:21;;;;;;;;;;;12.50;72.10;;;;;;4190350;28;19908;-85
2022/07/16 04:02:42;;;;;;;;;;;12.50;72.10;;;;;;4172117;28;19909;-85
2022/07/16 04:05:04;;;;;;;;;;;12.40;71.90;;;;;;4176239;28;19909;-85
2022/07/16 04:07:25;;;;;;;;;;;12.40;72.00;;;;;;4192151;28;19905;-83
2022/07/16 04:09:46;;;;;;;;;;;12.40;71.90;;;;;;4191327;28;19919;-85
2022/07/16 04:12:06;;;;;;;;;;;12.40;71.90;;;;;;4170097;28;20003;-86
2022/07/16 04:14:27;;;;;;;;;;;12.40;71.90;;;;;;4192900;28;20084;-85
2022/07/16 04:16:48;;;;;;;;;;;12.40;71.80;;;;;;4190272;28;19915;-85
2022/07/16 04:19:09;;;;;;;;;;;12.50;71.90;;;;;;4190765;28;19909;-85
2022/07/16 04:21:30;;;;;;;;;;;12.50;71.90;;;;;;4188414;28;19909;-84
2022/07/16 04:23:51;;;;;;;;;;;12.50;71.80;;;;;;4174425;28;19947;-84
2022/07/16 04:26:11;;;;;;;;;;;12.50;71.80;;;;;;4180088;28;19952;-86
2022/07/16 04:28:32;;;;;;;;;;;12.50;71.90;;;;;;4173966;28;19908;-84
2022/07/16 04:30:53;;;;;;;;;;;12.50;71.80;;;;;;4187921;28;19938;-85
2022/07/16 04:33:14;;;;;;;;;;;12.50;71.60;;;;;;4189034;28;19904;-85
2022/07/16 04:35:35;;;;;;;;;;;12.60;71.60;;;;;;4189574;28;19916;-85
2022/07/16 04:37:56;;;;;;;;;;;12.60;71.50;;;;;;4173221;28;19917;-83
2022/07/16 04:40:17;;;;;;;;;;;12.60;71.30;;;;;;4183894;28;19909;-85
2022/07/16 04:42:41;;;;;;;;;;;12.60;71.10;;;;;;4176046;28;19913;-85
2022/07/16 04:45:03;;;;;;;;;;;12.60;71.00;;;;;;4178061;28;19913;-85
2022/07/16 04:47:23;;;;;;;;;;;12.60;71.00;;;;;;4167187;28;19989;-85
2022/07/16 04:49:44;;;;;;;;;;;12.70;71.10;;;;;;4192361;28;19911;-85
2022/07/16 04:52:05;;;;;;;;;;;12.70;71.00;;;;;;4179685;28;19905;-85
2022/07/16 04:54:26;;;;;;;;;;;12.70;71.30;;;;;;4187434;28;19990;-84
2022/07/16 04:56:47;;;;;;;;;;;12.80;72.00;;;;;;4195523;28;20031;-84
2022/07/16 04:59:08;;;;;;;;;;;12.80;71.90;;;;;;4186216;28;19908;-84
2022/07/16 05:01:28;;;;;;;;;;;12.80;71.10;;;;;;4175768;28;19924;-85
2022/07/16 05:03:50;;;;;;;;;;;12.80;71.00;;;;;;4192938;28;19904;-84
2022/07/16 05:06:10;;;;;;;;;;;12.90;70.90;;;;;;4191782;28;19916;-84
2022/07/16 05:08:31;;;;;;;;;;;12.90;70.90;;;;;;4192695;28;19916;-86
2022/07/16 05:10:52;;;;;;;;;;;12.90;70.80;;;;;;4192104;28;19905;-86
2022/07/16 05:13:13;;;;;;;;;;;13.00;70.70;;;;;;4182727;28;19905;-82
2022/07/16 05:15:34;;;;;;;;;;;13.00;70.30;;;;;;4199144;28;19943;-83
2022/07/16 05:17:55;;;;;;;;;;;13.10;70.30;;;;;;4180313;28;19924;-86
2022/07/16 05:20:16;;;;;;;;;;;13.00;70.10;;;;;;4196100;28;19940;-84
2022/07/16 05:22:36;;;;;;;;;;;13.10;70.10;;;;;;4177474;28;19915;-81
2022/07/16 05:24:57;;;;;;;;;;;13.10;69.90;;;;;;4177997;28;19952;-84
2022/07/16 05:27:18;;;;;;;;;;;13.20;70.00;;;;;;4180630;28;19909;-84
2022/07/16 05:29:39;;;;;;;;;;;13.20;70.00;;;;;;4192579;28;19951;-82
2022/07/16 05:32:00;;;;;;;;;;;13.20;69.90;;;;;;4177596;28;20305;-85
2022/07/16 05:34:20;;;;;;;;;;;13.30;69.60;;;;;;4187934;28;20480;-83
2022/07/16 05:36:41;;;;;;;;;;;13.30;69.60;;;;;;4192387;28;19936;-82
2022/07/16 05:39:02;;;;;;;;;;;13.40;69.40;;;;;;4189515;28;19909;-84
2022/07/16 05:41:23;;;;;;;;;;;13.40;68.90;;;;;;4179308;28;19920;-85
2022/07/16 05:43:44;;;;;;;;;;;13.50;69.10;;;;;;4198134;28;19919;-85
2022/07/16 05:46:04;;;;;;;;;;;13.50;68.90;;;;;;4173490;28;19913;-83
2022/07/16 05:48:25;;;;;;;;;;;13.50;68.90;;;;;;4194261;28;19904;-86
2022/07/16 05:50:46;;;;;;;;;;;13.60;68.90;;;;;;4175340;28;20295;-84
2022/07/16 05:53:07;;;;;;;;;;;13.60;68.50;;;;;;4189970;28;20030;-85
2022/07/16 05:55:28;;;;;;;;;;;13.70;68.40;;;;;;4172987;28;19913;-84
2022/07/16 05:57:49;;;;;;;;;;;13.70;67.80;;;;;;4182418;28;19916;-86
2022/07/16 06:00:10;;;;;;;;;;;13.80;67.70;;;;;;4191824;28;19911;-84
2022/07/16 06:02:31;;;;;;;;;;;13.80;67.70;;;;;;4189134;28;19958;-85
2022/07/16 06:04:52;;;;;;;;;;;13.90;67.70;;;;;;4186860;28;20000;-84
2022/07/16 06:07:13;;;;;;;;;;;13.90;67.70;;;;;;4191253;28;20393;-84
2022/07/16 06:09:33;;;;;;;;;;;13.90;67.30;;;;;;4189200;28;19905;-82
2022/07/16 06:11:54;;;;;;;;;;;13.90;66.90;;;;;;4190460;28;19951;-83
2022/07/16 06:14:15;;;;;;;;;;;14.00;66.60;;;;;;4177373;28;19909;-84
2022/07/16 06:16:38;;;;;;;;;;;14.00;66.60;;;;;;4203952;22;19952;-85
2022/07/16 06:18:59;;;;;;;;;;;14.00;66.80;;;;;;4195784;28;20425;-84
2022/07/16 06:21:23;;;;;;;;;;;14.10;66.60;;;;;;4175997;28;19905;-84
2022/07/16 06:23:44;;;;;;;;;;;14.10;66.50;;;;;;4195097;28;20279;-84
2022/07/16 06:26:08;;;;;;;;;;;14.20;66.70;;;;;;4192726;28;19911;-83
2022/07/16 06:28:29;;;;;;;;;;;14.20;66.50;;;;;;4177040;28;19905;-84
2022/07/16 06:30:55;;;;;;;;;;;14.20;66.40;;;;;;4194044;28;20003;-83
2022/07/16 06:33:16;;;;;;;;;;;14.30;66.30;;;;;;4190269;28;19909;-83
2022/07/16 06:35:44;;;;;;;;;;;14.30;66.50;;;;;;4186348;28;19921;-85
2022/07/16 06:38:10;;;;;;;;;;;14.40;66.40;;;;;;4189421;28;20321;-84
2022/07/16 06:40:34;;;;;;;;;;;14.40;65.40;;;;;;4181465;28;19935;-84
2022/07/16 06:42:55;;;;;;;;;;;14.40;65.10;;;;;;4199647;28;19908;-84
2022/07/16 06:45:19;;;;;;;;;;;14.50;65.20;;;;;;4193536;28;19916;-85
2022/07/16 06:47:48;;;;;;;;;;;14.40;64.00;;;;;;4175536;28;19948;-85
2022/07/16 06:50:15;;;;;;;;;;;14.50;63.80;;;;;;4192943;28;20062;-83
2022/07/16 06:52:36;;;;;;;;;;;14.40;62.70;;;;;;4187048;28;19918;-85
2022/07/16 06:55:17;;;;;;;;;;;14.50;63.60;;;;;;4192067;28;19962;-84
2022/07/16 06:57:38;;;;;;;;;;;14.60;64.10;;;;;;4162595;28;19909;-83
2022/07/16 07:03:01;;;;;;;;;;;14.70;62.50;;;;;;4190318;28;20609;-84
2022/07/16 07:05:42;;;;;;;;;;;14.60;62.40;;;;;;4195463;28;19904;-85
2022/07/16 07:08:03;;;;;;;;;;;14.70;62.90;;;;;;4116348;28;19910;-84
2022/07/16 07:10:43;;;;;;;;;;;14.70;63.10;;;;;;4113035;28;19945;-86
2022/07/16 07:13:04;;;;;;;;;;;14.80;63.10;;;;;;4113021;28;20376;-85
2022/07/16 07:15:28;;;;;;;;;;;14.80;63.30;;;;;;4117362;28;19913;-84
2022/07/16 07:18:02;;;;;;;;;;;14.80;62.70;;;;;;4116690;28;20427;-84
2022/07/16 07:20:23;;;;;;;;;;;14.90;61.60;;;;;;4100928;28;19950;-83
2022/07/16 07:22:44;;;;;;;;;;;14.90;60.80;;;;;;4120486;28;20557;-85
2022/07/16 07:25:05;;;;;;;;;;;15.00;61.30;;;;;;4111943;28;19906;-86
2022/07/16 07:27:26;;;;;;;;;;;15.00;60.80;;;;;;4111211;28;19945;-83
2022/07/16 07:29:46;;;;;;;;;;;15.00;59.90;;;;;;4118812;28;19977;-85
2022/07/16 07:32:07;;;;;;;;;;;15.10;59.60;;;;;;4116837;28;20323;-84
2022/07/16 07:34:28;;;;;;;;;;;15.10;59.00;;;;;;4113097;28;19914;-83
2022/07/16 07:36:49;;;;;;;;;;;15.10;58.90;;;;;;4111657;28;19921;-85
2022/07/16 07:39:10;;;;;;;;;;;15.20;58.60;;;;;;4117476;28;19906;-85
2022/07/16 07:41:31;;;;;;;;;;;15.20;58.20;;;;;;4113008;28;19915;-85
2022/07/16 07:43:52;;;;;;;;;;;15.20;58.40;;;;;;4141583;28;19927;-86
2022/07/16 07:46:12;;;;;;;;;;;15.20;58.90;;;;;;4192895;28;19919;-84
2022/07/16 07:48:33;;;;;;;;;;;15.20;59.20;;;;;;4197367;28;20404;-87
2022/07/16 07:50:54;;;;;;;;;;;15.30;59.10;;;;;;4196000;28;19909;-85
2022/07/16 07:53:15;;;;;;;;;;;15.30;58.70;;;;;;4198365;28;19911;-85
2022/07/16 07:55:38;;;;;;;;;;;15.30;58.30;;;;;;4198552;28;19909;-85
2022/07/16 07:57:59;;;;;;;;;;;15.40;57.30;;;;;;4181363;28;20281;-85
2022/07/16 08:00:35;;;;;;;;;;;15.40;57.50;;;;;;4186193;28;20368;-83
2022/07/16 08:03:05;;;;;;;;;;;15.50;57.60;;;;;;4197269;28;20066;-83
2022/07/16 08:05:26;;;;;;;;;;;15.50;56.60;;;;;;4193071;28;20278;-86
2022/07/16 08:07:47;;;;;;;;;;;15.50;55.90;;;;;;4193798;28;19952;-84
2022/07/16 08:10:11;;;;;;;;;;;15.60;56.70;;;;;;4195317;28;19916;-85
2022/07/16 08:12:39;;;;;;;;;;;15.70;55.90;;;;;;4190720;28;19908;-84
2022/07/16 08:15:00;;;;;;;;;;;15.70;56.30;;;;;;4188576;28;19919;-87
2022/07/16 08:17:23;;;;;;;;;;;15.70;54.70;;;;;;4191568;28;19917;-86
2022/07/16 08:19:44;;;;;;;;;;;15.80;55.10;;;;;;4177743;28;19944;-82
2022/07/16 08:22:05;;;;;;;;;;;15.90;55.40;;;;;;4177815;28;19904;-85
2022/07/16 08:27:06;;;;;;;;;;;16.00;54.80;;;;;;4181931;28;19930;-84
2022/07/16 08:29:27;;;;;;;;;;;16.00;54.30;;;;;;4184648;28;19995;-83
2022/07/16 08:31:48;;;;;;;;;;;16.00;54.30;;;;;;4183836;28;19967;-85
2022/07/16 08:34:09;;;;;;;;;;;16.00;54.80;;;;;;4178585;28;19912;-85
2022/07/16 08:36:30;;;;;;;;;;;16.00;54.90;;;;;;4182420;28;20007;-86
2022/07/16 08:38:51;;;;;;;;;;;16.10;55.40;;;;;;4184323;28;19908;-87
2022/07/16 08:41:12;;;;;;;;;;;16.10;54.70;;;;;;4179189;28;20402;-84
2022/07/16 08:43:34;;;;;;;;;;;16.10;54.10;;;;;;4177633;28;19992;-86
2022/07/16 08:45:55;;;;;;;;;;;16.10;54.10;;;;;;4189481;28;20056;-84
2022/07/16 08:48:16;;;;;;;;;;;16.10;54.10;;;;;;4197479;28;19926;-84
2022/07/16 08:50:37;;;;;;;;;;;16.10;54.80;;;;;;4191169;28;19915;-85
2022/07/16 08:52:59;;;;;;;;;;;16.10;54.40;;;;;;4187568;28;19913;-86
2022/07/16 08:55:23;;;;;;;;;;;16.10;54.60;;;;;;4191069;28;20437;-85
2022/07/16 08:57:46;;;;;;;;;;;16.10;54.20;;;;;;4190088;28;20441;-85
2022/07/16 09:00:13;;;;;;;;;;;16.10;55.00;;;;;;4176463;28;19947;-85
2022/07/16 09:02:34;;;;;;;;;;;16.10;55.20;;;;;;4188414;28;20103;-84
2022/07/16 09:04:55;;;;;;;;;;;16.20;55.30;;;;;;4189007;28;19926;-85
2022/07/16 09:07:17;;;;;;;;;;;16.20;55.30;;;;;;4187861;28;19971;-86
2022/07/16 09:09:38;;;;;;;;;;;16.30;55.20;;;;;;4192890;28;19912;-85
2022/07/16 09:11:59;;;;;;;;;;;16.40;55.20;;;;;;4190726;28;19961;-87
2022/07/16 09:14:20;;;;;;;;;;;16.40;55.00;;;;;;4172334;28;19940;-86
2022/07/16 09:16:49;;;;;;;;;;;16.40;55.00;;;;;;4187710;28;19923;-86
2022/07/16 09:19:11;;;;;;;;;;;16.50;55.10;;;;;;4187933;28;19931;-85
2022/07/16 09:21:33;;;;;;;;;;;16.60;55.00;;;;;;4199233;28;19916;-85
2022/07/16 09:23:59;;;;;;;;;;;16.50;54.20;;;;;;4186667;28;19912;-85
2022/07/16 09:26:23;;;;;;;;;;;16.60;54.30;;;;;;4188402;28;19901;-85
2022/07/16 09:28:44;;;;;;;;;;;16.60;54.10;;;;;;4186119;28;20555;-85
2022/07/16 09:31:05;;;;;;;;;;;16.60;53.90;;;;;;4176555;28;19908;-87
2022/07/16 09:33:26;;;;;;;;;;;16.60;53.70;;;;;;4197461;28;20056;-85
2022/07/16 09:36:06;;;;;;;;;;;16.60;54.10;;;;;;4175935;28;19923;-87
2022/07/16 09:38:27;;;;;;;;;;;16.70;54.00;;;;;;4178673;28;19917;-85
2022/07/16 09:40:48;;;;;;;;;;;16.70;53.60;;;;;;4188622;28;20438;-86
2022/07/16 09:43:15;;;;;;;;;;;16.80;53.40;;;;;;4180460;28;19916;-86
2022/07/16 09:45:36;;;;;;;;;;;16.80;53.00;;;;;;4177070;28;19916;-86
2022/07/16 09:47:57;;;;;;;;;;;16.80;52.70;;;;;;4176945;28;19912;-85
2022/07/16 09:50:20;;;;;;;;;;;16.80;52.70;;;;;;4188870;28;19901;-86
2022/07/16 09:52:41;;;;;;;;;;;16.80;53.40;;;;;;4194532;28;19907;-85
2022/07/16 09:55:07;;;;;;;;;;;16.80;53.10;;;;;;4183415;28;19913;-85
2022/07/16 09:57:28;;;;;;;;;;;16.90;53.20;;;;;;4171560;28;19908;-86
2022/07/16 09:59:53;;;;;;;;;;;16.90;53.20;;;;;;4178739;28;19911;-85
2022/07/16 10:02:17;;;;;;;;;;;16.90;52.50;;;;;;4181717;28;19947;-86
2022/07/16 10:04:47;;;;;;;;;;;16.90;52.20;;;;;;4180249;28;19954;-85
2022/07/16 10:07:20;;;;;;;;;;;16.90;52.80;;;;;;4173513;28;19905;-86
2022/07/16 10:09:41;;;;;;;;;;;17.00;53.30;;;;;;4191353;28;19900;-86
2022/07/16 10:12:11;;;;;;;;;;;17.00;53.00;;;;;;4193080;28;19936;-85
2022/07/16 10:14:42;;;;;;;;;;;17.00;52.80;;;;;;4181412;28;19921;-85
2022/07/16 10:17:10;;;;;;;;;;;17.20;52.70;;;;;;4190455;28;20365;-84
2022/07/16 10:19:36;;;;;;;;;;;17.10;52.60;;;;;;4176230;28;20007;-85
2022/07/16 10:22:22;;;;;;;;;;;17.10;51.60;;;;;;4179531;28;20502;-85
2022/07/16 10:24:44;;;;;;;;;;;17.10;51.90;;;;;;4176021;28;19909;-86
2022/07/16 10:27:23;;;;;;;;;;;17.10;51.60;;;;;;4193601;28;19900;-85
2022/07/16 10:29:44;;;;;;;;;;;17.20;52.30;;;;;;4183446;28;19913;-84
2022/07/16 10:34:45;;;;;;;;;;;17.30;52.30;;;;;;4197097;28;19908;-84
2022/07/16 10:37:24;;;;;;;;;;;17.40;53.00;;;;;;4183153;28;19939;-86
2022/07/16 10:39:59;;;;;;;;;;;17.40;52.60;;;;;;4170976;28;19914;-84
2022/07/16 10:42:24;;;;;;;;;;;17.50;51.60;;;;;;4191986;28;19908;-86
2022/07/16 10:44:49;;;;;;;;;;;17.60;51.50;;;;;;4185968;28;19948;-85
2022/07/16 10:47:10;;;;;;;;;;;17.60;51.50;;;;;;4186849;28;20308;-85
2022/07/16 10:49:31;;;;;;;;;;;17.70;51.30;;;;;;4177457;28;20558;-86
2022/07/16 10:52:03;;;;;;;;;;;17.70;51.30;;;;;;4183339;28;19904;-85
2022/07/16 10:54:25;;;;;;;;;;;17.70;50.60;;;;;;4175767;28;19905;-86
2022/07/16 10:56:47;;;;;;;;;;;17.80;50.50;;;;;;4192760;28;19955;-85
2022/07/16 10:59:11;;;;;;;;;;;17.80;49.90;;;;;;4192782;28;19904;-86
2022/07/16 11:01:32;;;;;;;;;;;17.70;48.80;;;;;;4181798;28;19915;-84
2022/07/16 11:03:53;;;;;;;;;;;17.70;49.70;;;;;;4194766;28;19904;-85
2022/07/16 11:06:14;;;;;;;;;;;17.70;50.00;;;;;;4174786;28;19909;-85
2022/07/16 11:08:34;;;;;;;;;;;17.70;49.90;;;;;;4194331;28;19976;-85
2022/07/16 11:10:55;;;;;;;;;;;17.80;50.40;;;;;;4183964;28;20121;-86
2022/07/16 11:13:18;;;;;;;;;;;17.80;50.30;;;;;;4192495;28;19923;-85
2022/07/16 11:15:40;;;;;;;;;;;17.80;49.80;;;;;;4190427;28;19919;-85
2022/07/16 11:18:01;;;;;;;;;;;17.70;49.70;;;;;;4186171;28;20358;-85
2022/07/16 11:20:32;;;;;;;;;;;17.80;50.00;;;;;;4193743;28;19904;-86
2022/07/16 11:23:02;;;;;;;;;;;17.80;50.10;;;;;;4178523;28;20363;-85
2022/07/16 11:25:23;;;;;;;;;;;17.80;50.80;;;;;;4191190;28;19909;-85
2022/07/16 11:27:44;;;;;;;;;;;17.80;50.50;;;;;;4177448;28;19923;-87
2022/07/16 11:30:06;;;;;;;;;;;17.80;50.30;;;;;;4190750;28;19904;-84
2022/07/16 11:32:27;;;;;;;;;;;17.90;50.60;;;;;;4185216;28;19930;-86
2022/07/16 11:34:48;;;;;;;;;;;17.90;50.80;;;;;;4190855;28;20580;-87
2022/07/16 11:37:09;;;;;;;;;;;17.90;51.20;;;;;;4189504;28;20013;-86
2022/07/16 11:39:30;;;;;;;;;;;17.80;50.90;;;;;;4183831;28;19913;-86
2022/07/16 11:41:52;;;;;;;;;;;17.80;50.20;;;;;;4188456;28;19908;-84
2022/07/16 11:44:17;;;;;;;;;;;17.80;49.60;;;;;;4171492;28;19909;-85
2022/07/16 11:46:43;;;;;;;;;;;17.80;49.80;;;;;;4184833;28;19952;-86
2022/07/16 11:49:04;;;;;;;;;;;17.70;50.20;;;;;;4190803;28;19915;-85
2022/07/16 11:51:28;;;;;;;;;;;17.70;50.10;;;;;;4186155;28;19908;-86
2022/07/16 11:53:49;;;;;;;;;;;17.80;50.80;;;;;;4183405;28;19908;-85
2022/07/16 11:56:12;;;;;;;;;;;17.70;50.40;;;;;;4188278;28;20397;-85
2022/07/16 11:58:33;;;;;;;;;;;17.80;50.80;;;;;;4178366;28;19930;-88
2022/07/16 12:00:54;;;;;;;;;;;17.80;51.20;;;;;;4175923;28;19915;-85
2022/07/16 12:03:16;;;;;;;;;;;17.80;50.70;;;;;;4176945;28;19909;-84
2022/07/16 12:05:37;;;;;;;;;;;17.80;50.40;;;;;;4185476;28;20593;-85
2022/07/16 12:07:58;;;;;;;;;;;17.80;50.60;;;;;;4192990;28;19900;-86
2022/07/16 12:10:22;;;;;;;;;;;17.80;50.80;;;;;;4190234;28;19904;-85
2022/07/16 12:12:43;;;;;;;;;;;17.80;50.60;;;;;;4163608;28;19917;-88
2022/07/16 12:15:12;;;;;;;;;;;17.90;50.90;;;;;;4188112;28;19908;-87
2022/07/16 12:17:36;;;;;;;;;;;17.90;50.70;;;;;;4191403;28;19956;-85
2022/07/16 12:20:12;;;;;;;;;;;18.00;50.90;;;;;;4177471;28;19917;-84
2022/07/16 12:22:50;;;;;;;;;;;18.00;50.10;;;;;;4185140;28;19919;-85
2022/07/16 12:25:17;;;;;;;;;;;18.10;50.20;;;;;;4183253;28;20512;-85
2022/07/16 12:27:54;;;;;;;;;;;18.20;49.60;;;;;;4175691;28;19939;-85
2022/07/16 12:30:16;;;;;;;;;;;18.20;49.10;;;;;;4176699;28;19983;-86
2022/07/16 12:32:57;;;;;;;;;;;18.20;49.50;;;;;;4176038;28;19952;-86
2022/07/16 12:35:53;;;;;;;;;;;18.20;49.60;;;;;;4188599;28;19921;-86
2022/07/16 12:38:33;;;;;;;;;;;18.20;49.90;;;;;;4111248;28;20066;-87
2022/07/16 12:40:54;;;;;;;;;;;18.30;49.30;;;;;;4188142;28;20225;-85
2022/07/16 12:43:15;;;;;;;;;;;18.30;49.00;;;;;;4173939;28;19990;-84
2022/07/16 12:45:36;;;;;;;;;;;18.30;48.80;;;;;;4174424;28;19920;-85
2022/07/16 12:47:57;;;;;;;;;;;18.30;48.90;;;;;;4190752;28;19909;-85
2022/07/16 12:50:18;;;;;;;;;;;18.30;49.00;;;;;;4176512;28;20413;-86
2022/07/16 12:52:39;;;;;;;;;;;18.30;48.70;;;;;;4183528;28;20011;-85
2022/07/16 13:00:19;;;;;;;;;;;18.30;48.20;;;;;;4189221;28;19917;-86
2022/07/16 13:02:40;;;;;;;;;;;18.40;48.40;;;;;;4189926;28;20317;-86
2022/07/16 13:05:01;;;;;;;;;;;18.30;48.40;;;;;;4182635;28;19912;-85
2022/07/16 13:07:22;;;;;;;;;;;18.30;48.40;;;;;;4191066;28;19909;-86
2022/07/16 13:09:43;;;;;;;;;;;18.30;49.00;;;;;;4197182;28;19908;-84
2022/07/16 13:12:04;;;;;;;;;;;18.30;48.80;;;;;;4187438;28;19918;-85
2022/07/16 13:14:24;;;;;;;;;;;18.30;48.90;;;;;;4178594;28;19909;-85
2022/07/16 13:16:46;;;;;;;;;;;18.30;48.90;;;;;;4177211;28;20376;-86
2022/07/16 13:19:07;;;;;;;;;;;18.20;48.90;;;;;;4186448;28;19908;-85
2022/07/16 13:21:29;;;;;;;;;;;18.20;49.00;;;;;;4193470;28;19904;-85
2022/07/16 13:23:55;;;;;;;;;;;18.10;49.30;;;;;;4189150;28;19904;-87
2022/07/16 13:26:16;;;;;;;;;;;18.10;48.90;;;;;;4178859;28;19924;-87
2022/07/16 13:28:37;;;;;;;;;;;18.20;49.40;;;;;;4180987;28;20030;-84
2022/07/16 13:30:59;;;;;;;;;;;18.20;48.90;;;;;;4191311;28;19995;-85
2022/07/16 13:33:20;;;;;;;;;;;18.20;48.70;;;;;;4183862;28;19909;-84
2022/07/16 13:35:41;;;;;;;;;;;18.30;48.30;;;;;;4176730;28;19921;-87
2022/07/16 13:38:02;;;;;;;;;;;18.30;48.00;;;;;;4194707;28;19991;-87
2022/07/16 13:40:23;;;;;;;;;;;18.30;48.60;;;;;;4176702;28;19913;-86
2022/07/16 13:42:47;;;;;;;;;;;18.30;48.20;;;;;;4195918;28;19905;-89
2022/07/16 13:45:08;;;;;;;;;;;18.30;48.30;;;;;;4187636;28;19908;-86
2022/07/16 13:47:29;;;;;;;;;;;18.30;48.90;;;;;;4191536;28;20039;-85
2022/07/16 13:49:50;;;;;;;;;;;18.30;49.00;;;;;;4177977;28;19908;-86
2022/07/16 13:52:11;;;;;;;;;;;18.30;48.50;;;;;;4191806;28;19953;-85
2022/07/16 13:54:32;;;;;;;;;;;18.30;47.90;;;;;;4192166;28;19916;-85
2022/07/16 13:56:53;;;;;;;;;;;18.40;48.50;;;;;;4183563;28;19916;-87
2022/07/16 13:59:14;;;;;;;;;;;18.50;48.10;;;;;;4195973;28;19908;-84
2022/07/16 14:01:35;;;;;;;;;;;18.50;47.20;;;;;;4190775;28;19909;-86
2022/07/16 14:03:56;;;;;;;;;;;18.50;47.50;;;;;;4190719;28;19999;-87
2022/07/16 14:06:17;;;;;;;;;;;18.60;46.90;;;;;;4194115;28;19912;-87